createdAt,value
2022-07-28T00:02:21.115Z,96424.00
2022-07-28T00:06:25.717Z,96414.00
2022-07-28T00:10:28.969Z,96415.00
2022-07-28T00:15:05.703Z,96413.00
2022-07-28T00:19:08.913Z,96410.00
2022-07-28T00:23:45.881Z,96414.00
2022-07-28T00:27:50.386Z,96413.00
2022-07-28T00:32:27.197Z,96411.00
2022-07-28T00:36:30.335Z,96412.00
2022-07-28T00:40:51.135Z,96402.00
2022-07-28T00:44:55.679Z,96400.00
2022-07-28T00:48:58.893Z,96396.00
2022-07-28T00:53:02.742Z,96407.00
2022-07-28T00:57:07.985Z,96399.00
2022-07-28T01:01:16.018Z,96400.00
2022-07-28T01:05:51.401Z,96391.00
2022-07-28T01:15:20.119Z,96397.00
2022-07-28T01:19:50.339Z,96392.00
2022-07-28T01:24:06.606Z,96382.00
2022-07-28T01:28:26.005Z,96385.00
2022-07-28T01:32:58.957Z,96379.00
2022-07-28T01:37:08.611Z,96377.00
2022-07-28T01:41:37.662Z,96368.00
2022-07-28T01:46:12.732Z,96366.00
2022-07-28T01:50:19.878Z,96366.00
2022-07-28T01:54:25.053Z,96363.00
2022-07-28T01:58:29.951Z,96360.00
2022-07-28T02:02:35.509Z,96357.00
2022-07-28T02:06:41.886Z,96350.00
2022-07-28T02:11:05.683Z,96348.00
2022-07-28T02:15:14.612Z,96345.00
2022-07-28T02:19:20.940Z,96339.00
2022-07-28T02:23:57.430Z,96348.00
2022-07-28T02:28:04.727Z,96338.00
2022-07-28T02:32:27.248Z,96334.00
2022-07-28T02:36:34.098Z,96334.00
2022-07-28T02:41:12.236Z,96328.00
2022-07-28T02:45:17.966Z,96340.00
2022-07-28T02:49:24.670Z,96337.00
2022-07-28T02:53:29.728Z,96341.00
2022-07-28T02:57:34.546Z,96347.00
2022-07-28T03:01:38.398Z,96344.00
2022-07-28T03:05:42.388Z,96351.00
2022-07-28T03:09:48.626Z,96365.00
2022-07-28T03:13:53.486Z,96357.00
2022-07-28T03:17:56.625Z,96358.00
2022-07-28T03:21:59.988Z,96368.00
2022-07-28T03:26:06.964Z,96361.00
2022-07-28T03:30:16.119Z,96358.00
2022-07-28T03:34:19.394Z,96355.00
2022-07-28T03:38:26.985Z,96347.00
2022-07-28T03:42:31.916Z,96347.00
2022-07-28T03:46:36.540Z,96342.00
2022-07-28T03:50:39.832Z,96352.00
2022-07-28T03:54:42.963Z,96346.00
2022-07-28T03:58:46.184Z,96354.00
2022-07-28T04:02:50.937Z,96344.00
2022-07-28T04:06:54.198Z,96340.00
2022-07-28T04:10:57.365Z,96340.00
2022-07-28T04:15:00.614Z,96346.00
2022-07-28T04:19:05.212Z,96344.00
2022-07-28T04:23:08.408Z,96344.00
2022-07-28T04:27:11.635Z,96337.00
2022-07-28T04:31:15.096Z,96342.00
2022-07-28T04:35:20.582Z,96339.00
2022-07-28T04:39:24.949Z,96337.00
2022-07-28T04:43:28.143Z,96346.00
2022-07-28T04:47:31.355Z,96359.00
2022-07-28T04:51:37.197Z,96348.00
2022-07-28T04:55:40.533Z,96353.00
2022-07-28T04:59:44.021Z,96353.00
2022-07-28T05:03:51.417Z,96356.00
2022-07-28T05:07:55.983Z,96357.00
2022-07-28T05:11:59.333Z,96363.00
2022-07-28T05:16:03.204Z,96362.00
2022-07-28T05:20:08.625Z,96368.00
2022-07-28T05:24:14.641Z,96367.00
2022-07-28T05:28:18.163Z,96368.00
2022-07-28T05:32:21.334Z,96369.00
2022-07-28T05:36:24.566Z,96362.00
2022-07-28T05:40:30.139Z,96370.00
2022-07-28T05:44:37.981Z,96362.00
2022-07-28T05:48:41.903Z,96369.00
2022-07-28T05:52:45.591Z,96374.00
2022-07-28T05:56:51.222Z,96371.00
2022-07-28T06:00:54.549Z,96377.00
2022-07-28T06:04:58.707Z,96390.00
2022-07-28T06:09:01.990Z,96380.00
2022-07-28T06:13:06.747Z,96380.00
2022-07-28T06:17:09.950Z,96384.00
2022-07-28T06:21:13.089Z,96379.00
2022-07-28T06:25:17.437Z,96390.00
2022-07-28T06:29:22.781Z,96396.00
2022-07-28T06:33:26.083Z,96393.00
2022-07-28T06:37:29.584Z,96397.00
2022-07-28T06:41:32.908Z,96396.00
2022-07-28T06:45:37.580Z,96395.00
2022-07-28T06:49:40.787Z,96398.00
2022-07-28T06:53:44.003Z,96414.00
2022-07-28T06:57:49.308Z,96405.00
2022-07-28T07:01:53.905Z,96400.00
2022-07-28T07:05:57.682Z,96406.00
2022-07-28T07:10:00.959Z,96400.00
2022-07-28T07:14:04.649Z,96405.00
2022-07-28T07:18:09.358Z,96398.00
2022-07-28T07:22:14.825Z,96396.00
2022-07-28T07:26:18.168Z,96392.00
2022-07-28T07:30:21.604Z,96388.00
2022-07-28T07:34:26.394Z,96378.00
2022-07-28T07:38:29.572Z,96380.00
2022-07-28T07:42:32.866Z,96373.00
2022-07-28T07:46:37.290Z,96374.00
2022-07-28T07:50:42.048Z,96382.00
2022-07-28T07:54:45.539Z,96379.00
2022-07-28T07:58:53.622Z,96389.00
2022-07-28T08:03:00.409Z,96382.00
2022-07-28T08:07:08.548Z,96379.00
2022-07-28T08:11:12.505Z,96384.00
2022-07-28T08:15:15.801Z,96385.00
2022-07-28T08:19:21.679Z,96382.00
2022-07-28T08:23:26.527Z,96372.00
2022-07-28T08:27:29.689Z,96377.00
2022-07-28T08:31:33.259Z,96374.00
2022-07-28T08:35:38.893Z,96386.00
2022-07-28T08:39:44.800Z,96379.00
2022-07-28T08:43:51.152Z,96378.00
2022-07-28T08:48:08.163Z,96391.00
2022-07-28T08:52:13.805Z,96383.00
2022-07-28T08:56:20.184Z,96373.00
2022-07-28T09:00:23.968Z,96382.00
2022-07-28T09:04:27.905Z,96388.00
2022-07-28T09:08:31.069Z,96381.00
2022-07-28T09:12:37.014Z,96385.00
2022-07-28T09:16:42.680Z,96388.00
2022-07-28T09:20:46.184Z,96381.00
2022-07-28T09:24:49.395Z,96379.00
2022-07-28T09:28:55.128Z,96381.00
2022-07-28T09:33:41.828Z,96371.00
2022-07-28T09:37:40.942Z,96374.00
2022-07-28T09:41:55.263Z,96369.00
2022-07-28T09:46:06.693Z,96374.00
2022-07-28T09:50:21.146Z,96368.00
2022-07-28T09:54:24.325Z,96372.00
2022-07-28T09:58:27.940Z,96362.00
2022-07-28T10:02:33.213Z,96358.00
2022-07-28T10:06:40.706Z,96361.00
2022-07-28T10:10:43.976Z,96354.00
2022-07-28T10:14:47.856Z,96353.00
2022-07-28T10:18:52.528Z,96340.00
2022-07-28T10:23:02.789Z,96340.00
2022-07-28T10:27:07.706Z,96345.00
2022-07-28T10:31:12.481Z,96342.00
2022-07-28T10:35:21.124Z,96334.00
2022-07-28T10:39:26.503Z,96339.00
2022-07-28T10:43:31.011Z,96334.00
2022-07-28T10:47:36.553Z,96341.00
2022-07-28T10:52:01.117Z,96334.00
2022-07-28T10:56:12.488Z,96332.00
2022-07-28T11:00:25.904Z,96325.00
2022-07-28T11:04:55.863Z,96325.00
2022-07-28T11:09:21.430Z,96327.00
2022-07-28T11:13:28.903Z,96313.00
2022-07-28T11:17:33.610Z,96310.00
2022-07-28T11:21:39.849Z,96313.00
2022-07-28T11:26:27.647Z,96307.00
2022-07-28T11:30:55.849Z,96306.00
2022-07-28T11:35:10.604Z,96312.00
2022-07-28T11:39:23.438Z,96301.00
2022-07-28T11:43:39.735Z,96313.00
2022-07-28T11:47:43.682Z,96310.00
2022-07-28T11:52:16.811Z,96299.00
2022-07-28T11:56:25.530Z,96302.00
2022-07-28T12:00:31.319Z,96295.00
2022-07-28T12:04:35.705Z,96295.00
2022-07-28T12:08:53.947Z,96284.00
2022-07-28T12:12:59.758Z,96284.00
2022-07-28T12:17:04.544Z,96294.00
2022-07-28T12:21:08.338Z,96290.00
2022-07-28T12:25:13.937Z,96287.00
2022-07-28T12:29:17.368Z,96282.00
2022-07-28T12:33:29.020Z,96279.00
2022-07-28T12:37:32.969Z,96279.00
2022-07-28T12:41:38.303Z,96281.00
2022-07-28T12:45:47.975Z,96278.00
2022-07-28T12:50:09.863Z,96270.00
2022-07-28T12:54:14.743Z,96258.00
2022-07-28T12:58:28.944Z,96251.00
2022-07-28T13:02:37.686Z,96252.00
2022-07-28T13:06:42.582Z,96261.00
2022-07-28T13:10:56.686Z,96248.00
2022-07-28T13:15:03.822Z,96248.00
2022-07-28T13:19:08.301Z,96248.00
2022-07-28T13:23:13.313Z,96243.00
2022-07-28T13:27:16.550Z,96237.00
2022-07-28T13:31:19.905Z,96234.00
2022-07-28T13:35:23.102Z,96238.00
2022-07-28T13:39:27.765Z,96223.00
2022-07-28T13:43:35.835Z,96236.00
2022-07-28T13:47:39.617Z,96230.00
2022-07-28T13:51:42.834Z,96229.00
2022-07-28T13:55:47.390Z,96220.00
2022-07-28T13:59:50.591Z,96230.00
2022-07-28T14:03:58.151Z,96212.00
2022-07-28T14:08:01.469Z,96209.00
2022-07-28T14:12:06.371Z,96204.00
2022-07-28T14:16:14.128Z,96214.00
2022-07-28T14:20:17.929Z,96214.00
2022-07-28T14:24:22.123Z,96215.00
2022-07-28T14:28:26.916Z,96204.00
2022-07-28T14:32:30.161Z,96211.00
2022-07-28T14:36:33.373Z,96205.00
2022-07-28T14:40:39.515Z,96197.00
2022-07-28T14:44:44.368Z,96196.00
2022-07-28T14:48:47.615Z,96200.00
2022-07-28T14:52:51.168Z,96193.00
2022-07-28T14:56:54.466Z,96200.00
2022-07-28T15:00:58.966Z,96198.00
2022-07-28T15:05:02.103Z,96190.00
2022-07-28T15:09:06.791Z,96184.00
2022-07-28T15:13:09.898Z,96184.00
2022-07-28T15:17:14.418Z,96185.00
2022-07-28T15:21:17.705Z,96180.00
2022-07-28T15:25:20.866Z,96181.00
2022-07-28T15:29:24.830Z,96173.00
2022-07-28T15:33:30.082Z,96179.00
2022-07-28T15:37:35.507Z,96177.00
2022-07-28T15:41:38.723Z,96174.00
2022-07-28T15:45:42.386Z,96171.00
2022-07-28T15:49:46.941Z,96173.00
2022-07-28T15:53:56.183Z,96174.00
2022-07-28T15:57:59.371Z,96165.00
2022-07-28T16:02:02.893Z,96166.00
2022-07-28T16:06:07.740Z,96154.00
2022-07-28T16:10:11.096Z,96164.00
2022-07-28T16:14:14.583Z,96157.00
2022-07-28T16:18:17.959Z,96152.00
2022-07-28T16:22:22.835Z,96145.00
2022-07-28T16:26:26.257Z,96151.00
2022-07-28T16:30:30.885Z,96148.00
2022-07-28T16:34:34.500Z,96150.00
2022-07-28T16:38:39.629Z,96146.00
2022-07-28T16:42:43.181Z,96149.00
2022-07-28T16:46:46.678Z,96141.00
2022-07-28T16:50:50.023Z,96146.00
2022-07-28T16:54:55.128Z,96155.00
2022-07-28T16:59:00.516Z,96149.00
2022-07-28T17:03:04.800Z,96147.00
2022-07-28T17:07:08.843Z,96151.00
2022-07-28T17:11:13.392Z,96149.00
2022-07-28T17:15:20.018Z,96157.00
2022-07-28T17:19:26.202Z,96163.00
2022-07-28T17:23:36.539Z,96168.00
2022-07-28T17:27:46.140Z,96171.00
2022-07-28T17:31:51.859Z,96165.00
2022-07-28T17:35:56.648Z,96167.00
2022-07-28T17:40:01.088Z,96169.00
2022-07-28T17:44:09.606Z,96173.00
2022-07-28T17:48:13.064Z,96169.00
2022-07-28T17:52:16.482Z,96165.00
2022-07-28T17:56:19.735Z,96170.00
2022-07-28T18:00:25.739Z,96179.00
2022-07-28T18:04:28.912Z,96177.00
2022-07-28T18:08:32.142Z,96177.00
2022-07-28T18:12:35.380Z,96183.00
2022-07-28T18:16:40.139Z,96169.00
2022-07-28T18:20:44.232Z,96176.00
2022-07-28T18:24:47.532Z,96185.00
2022-07-28T18:28:50.885Z,96179.00
2022-07-28T18:32:55.931Z,96180.00
2022-07-28T18:37:00.331Z,96177.00
2022-07-28T18:41:04.421Z,96187.00
2022-07-28T18:45:08.998Z,96185.00
2022-07-28T18:49:13.724Z,96183.00
2022-07-28T18:53:16.918Z,96194.00
2022-07-28T18:57:20.265Z,96194.00
2022-07-28T19:01:24.176Z,96188.00
2022-07-28T19:05:49.610Z,96198.00
2022-07-28T19:09:53.321Z,96199.00
2022-07-28T19:13:56.518Z,96204.00
2022-07-28T19:18:09.952Z,96214.00
2022-07-28T19:22:16.504Z,96219.00
2022-07-28T19:26:19.688Z,96219.00
2022-07-28T19:30:22.929Z,96220.00
2022-07-28T19:34:37.017Z,96216.00
2022-07-28T19:38:41.952Z,96215.00
2022-07-28T19:42:45.475Z,96220.00
2022-07-28T19:46:49.285Z,96227.00
2022-07-28T19:50:52.814Z,96229.00
2022-07-28T19:54:57.432Z,96218.00
2022-07-28T19:59:01.189Z,96219.00
2022-07-28T20:03:13.401Z,96221.00
2022-07-28T20:07:27.739Z,96217.00
2022-07-28T20:11:33.155Z,96213.00
2022-07-28T20:15:36.504Z,96227.00
2022-07-28T20:19:39.701Z,96242.00
2022-07-28T20:23:42.959Z,96234.00
2022-07-28T20:27:47.489Z,96237.00
2022-07-28T20:31:50.700Z,96236.00
2022-07-28T20:35:53.996Z,96248.00
2022-07-28T20:39:57.881Z,96248.00
2022-07-28T20:44:27.929Z,96255.00
2022-07-28T20:48:25.583Z,96251.00
2022-07-28T20:52:28.702Z,96249.00
2022-07-28T20:56:31.922Z,96253.00
2022-07-28T21:00:38.763Z,96249.00
2022-07-28T21:04:41.869Z,96257.00
2022-07-28T21:08:46.900Z,96261.00
2022-07-28T21:12:50.559Z,96265.00
2022-07-28T21:16:55.362Z,96267.00
2022-07-28T21:20:58.607Z,96271.00
2022-07-28T21:25:01.825Z,96275.00
2022-07-28T21:33:22.598Z,96263.00
2022-07-28T21:37:26.295Z,96275.00
2022-07-28T21:41:36.950Z,96276.00
2022-07-28T21:45:40.444Z,96282.00
2022-07-28T21:49:45.106Z,96290.00
2022-07-28T21:53:49.174Z,96300.00
2022-07-28T21:57:52.311Z,96312.00
2022-07-28T22:01:55.536Z,96307.00
2022-07-28T22:06:00.130Z,96311.00
2022-07-28T22:10:03.307Z,96314.00
2022-07-28T22:14:06.934Z,96316.00
2022-07-28T22:18:14.778Z,96314.00
2022-07-28T22:22:21.126Z,96313.00
2022-07-28T22:26:24.343Z,96324.00
2022-07-28T22:30:27.470Z,96322.00
2022-07-28T22:34:30.839Z,96321.00
2022-07-28T22:38:35.295Z,96314.00
2022-07-28T22:42:38.618Z,96327.00
2022-07-28T22:46:42.507Z,96330.00
2022-07-28T22:50:45.814Z,96324.00
2022-07-28T22:54:50.314Z,96321.00
2022-07-28T22:58:53.410Z,96327.00
2022-07-28T23:02:56.559Z,96330.00
2022-07-28T23:06:59.832Z,96330.00
2022-07-28T23:11:06.045Z,96333.00
2022-07-28T23:15:10.009Z,96329.00
2022-07-28T23:19:13.204Z,96328.00
2022-07-28T23:23:18.550Z,96325.00
2022-07-28T23:27:23.460Z,96319.00
2022-07-28T23:31:26.773Z,96316.00
2022-07-28T23:35:29.983Z,96308.00
2022-07-28T23:39:33.124Z,96307.00
2022-07-28T23:43:37.642Z,96299.00
2022-07-28T23:47:40.764Z,96300.00
2022-07-28T23:51:48.420Z,96292.00
2022-07-28T23:55:51.768Z,96288.00
2022-07-28T23:59:56.772Z,96284.00
